sensor_id;sensor_type;location;lat;lon;timestamp;temperature;humidity
20862;DHT22;10591;52.532;13.348;2024-03-23T00:52:44;7.95;87.07
20862;DHT22;10591;52.532;13.348;2024-03-23T00:55:15;7.95;87.21
20862;DHT22;10591;52.532;13.348;2024-03-23T00:57:46;7.94;87.26
20862;DHT22;10591;52.532;13.348;2024-03-23T01:00:17;7.90;87.18
20862;DHT22;10591;52.532;13.348;2024-03-23T01:02:47;7.96;87.08
20862;DHT22;10591;52.532;13.348;2024-03-23T01:05:18;7.89;87.26
20862;DHT22;10591;52.532;13.348;2024-03-23T01:07:50;7.88;87.11
20862;DHT22;10591;52.532;13.348;2024-03-23T01:10:20;7.80;87.22
20862;DHT22;10591;52.532;13.348;2024-03-23T01:12:51;7.83;87.04
20862;DHT22;10591;52.532;13.348;2024-03-23T01:15:22;7.85;87.28
20862;DHT22;10591;52.532;13.348;2024-03-23T01:17:52;7.94;87.00
20862;DHT22;10591;52.532;13.348;2024-03-23T01:20:23;7.94;87.25
20862;DHT22;10591;52.532;13.348;2024-03-23T01:22:54;7.84;87.46
20862;DHT22;10591;52.532;13.348;2024-03-23T01:25:26;7.95;87.48
20862;DHT22;10591;52.532;13.348;2024-03-23T01:27:56;7.97;87.22
20862;DHT22;10591;52.532;13.348;2024-03-23T01:30:27;7.87;87.46
20862;DHT22;10591;52.532;13.348;2024-03-23T01:32:57;7.94;87.25
20862;DHT22;10591;52.532;13.348;2024-03-23T01:35:29;7.89;87.51
20862;DHT22;10591;52.532;13.348;2024-03-23T01:37:59;8.02;87.36
20862;DHT22;10591;52.532;13.348;2024-03-23T01:40:31;7.99;87.31
20862;DHT22;10591;52.532;13.348;2024-03-23T01:43:06;7.88;87.46
20862;DHT22;10591;52.532;13.348;2024-03-23T01:45:40;8.02;87.18
20862;DHT22;10591;52.532;13.348;2024-03-23T01:48:12;7.96;87.17
20862;DHT22;10591;52.532;13.348;2024-03-23T01:50:43;8.08;86.88
20862;DHT22;10591;52.532;13.348;2024-03-23T01:53:14;8.00;87.00
20862;DHT22;10591;52.532;13.348;2024-03-23T01:55:47;7.90;87.02
20862;DHT22;10591;52.532;13.348;2024-03-23T01:58:18;7.94;87.12
20862;DHT22;10591;52.532;13.348;2024-03-23T02:00:49;7.99;86.86
20862;DHT22;10591;52.532;13.348;2024-03-23T02:03:27;7.90;87.24
20862;DHT22;10591;52.532;13.348;2024-03-23T02:05:58;8.00;87.32
20862;DHT22;10591;52.532;13.348;2024-03-23T02:08:30;7.94;87.11
20862;DHT22;10591;52.532;13.348;2024-03-23T02:11:01;8.04;87.10
20862;DHT22;10591;52.532;13.348;2024-03-23T02:13:32;7.91;87.29
20862;DHT22;10591;52.532;13.348;2024-03-23T02:16:04;7.92;87.25
20862;DHT22;10591;52.532;13.348;2024-03-23T02:18:35;7.96;87.13
20862;DHT22;10591;52.532;13.348;2024-03-23T02:21:06;7.98;87.22
20862;DHT22;10591;52.532;13.348;2024-03-23T02:23:36;7.98;86.97
20862;DHT22;10591;52.532;13.348;2024-03-23T02:26:09;7.97;86.99
20862;DHT22;10591;52.532;13.348;2024-03-23T02:28:40;8.03;86.62
20862;DHT22;10591;52.532;13.348;2024-03-23T02:31:12;8.05;86.35
20862;DHT22;10591;52.532;13.348;2024-03-23T02:33:46;8.09;86.66
20862;DHT22;10591;52.532;13.348;2024-03-23T02:36:17;8.06;86.69
20862;DHT22;10591;52.532;13.348;2024-03-23T02:38:48;8.10;86.66
20862;DHT22;10591;52.532;13.348;2024-03-23T02:41:19;7.98;86.68
20862;DHT22;10591;52.532;13.348;2024-03-23T02:43:51;8.04;86.69
20862;DHT22;10591;52.532;13.348;2024-03-23T02:46:22;8.12;86.67
20862;DHT22;10591;52.532;13.348;2024-03-23T02:48:55;8.07;86.74
20862;DHT22;10591;52.532;13.348;2024-03-23T02:51:26;8.08;86.65
20862;DHT22;10591;52.532;13.348;2024-03-23T02:53:57;8.03;86.96
20862;DHT22;10591;52.532;13.348;2024-03-23T02:56:27;8.00;87.07
20862;DHT22;10591;52.532;13.348;2024-03-23T02:58:58;7.95;87.12
20862;DHT22;10591;52.532;13.348;2024-03-23T03:01:29;7.93;87.50
20862;DHT22;10591;52.532;13.348;2024-03-23T03:04:00;7.96;87.12
20862;DHT22;10591;52.532;13.348;2024-03-23T03:06:32;7.93;87.34
20862;DHT22;10591;52.532;13.348;2024-03-23T03:09:03;7.91;87.29
20862;DHT22;10591;52.532;13.348;2024-03-23T03:11:36;7.97;87.39
20862;DHT22;10591;52.532;13.348;2024-03-23T03:14:06;7.85;87.50
20862;DHT22;10591;52.532;13.348;2024-03-23T03:16:37;7.88;87.60
20862;DHT22;10591;52.532;13.348;2024-03-23T03:19:08;7.87;87.46
20862;DHT22;10591;52.532;13.348;2024-03-23T03:21:40;7.82;87.47
20862;DHT22;10591;52.532;13.348;2024-03-23T03:24:10;7.92;87.52
20862;DHT22;10591;52.532;13.348;2024-03-23T03:26:41;7.73;87.52
20862;DHT22;10591;52.532;13.348;2024-03-23T03:29:11;7.78;87.44
20862;DHT22;10591;52.532;13.348;2024-03-23T03:31:43;7.70;87.49
20862;DHT22;10591;52.532;13.348;2024-03-23T03:34:14;7.65;87.59
20862;DHT22;10591;52.532;13.348;2024-03-23T03:36:44;7.66;87.55
20862;DHT22;10591;52.532;13.348;2024-03-23T03:39:16;7.59;87.71
20862;DHT22;10591;52.532;13.348;2024-03-23T03:41:46;7.64;87.90
20862;DHT22;10591;52.532;13.348;2024-03-23T03:44:17;7.60;87.93
20862;DHT22;10591;52.532;13.348;2024-03-23T03:46:48;7.64;88.01
20862;DHT22;10591;52.532;13.348;2024-03-23T03:49:18;7.48;87.70
20862;DHT22;10591;52.532;13.348;2024-03-23T03:51:50;7.36;88.14
20862;DHT22;10591;52.532;13.348;2024-03-23T03:54:21;7.39;88.26
20862;DHT22;10591;52.532;13.348;2024-03-23T03:56:52;7.35;87.98
20862;DHT22;10591;52.532;13.348;2024-03-23T03:59:22;7.32;87.95
20862;DHT22;10591;52.532;13.348;2024-03-23T04:01:53;7.26;87.85
20862;DHT22;10591;52.532;13.348;2024-03-23T04:04:24;7.14;87.01
20862;DHT22;10591;52.532;13.348;2024-03-23T04:07:01;7.08;86.57
20862;DHT22;10591;52.532;13.348;2024-03-23T04:09:32;7.11;86.55
20862;DHT22;10591;52.532;13.348;2024-03-23T04:12:03;7.04;86.54
20862;DHT22;10591;52.532;13.348;2024-03-23T04:14:33;6.92;85.46
20862;DHT22;10591;52.532;13.348;2024-03-23T04:17:04;6.74;85.73
20862;DHT22;10591;52.532;13.348;2024-03-23T04:19:35;6.64;85.72
20862;DHT22;10591;52.532;13.348;2024-03-23T04:22:05;6.68;85.36
20862;DHT22;10591;52.532;13.348;2024-03-23T04:24:36;6.68;85.91
20862;DHT22;10591;52.532;13.348;2024-03-23T04:27:07;6.66;86.35
20862;DHT22;10591;52.532;13.348;2024-03-23T04:29:37;6.57;86.58
20862;DHT22;10591;52.532;13.348;2024-03-23T04:32:08;6.74;86.28
20862;DHT22;10591;52.532;13.348;2024-03-23T04:34:38;6.73;86.51
20862;DHT22;10591;52.532;13.348;2024-03-23T04:37:09;6.80;86.79
20862;DHT22;10591;52.532;13.348;2024-03-23T04:39:40;6.70;87.00
20862;DHT22;10591;52.532;13.348;2024-03-23T04:42:10;6.80;86.68
20862;DHT22;10591;52.532;13.348;2024-03-23T04:44:42;6.74;86.91
20862;DHT22;10591;52.532;13.348;2024-03-23T04:47:12;6.90;86.44
20862;DHT22;10591;52.532;13.348;2024-03-23T04:49:43;6.91;86.55
20862;DHT22;10591;52.532;13.348;2024-03-23T04:52:16;6.92;86.17
20862;DHT22;10591;52.532;13.348;2024-03-23T04:54:46;6.80;86.34
20862;DHT22;10591;52.532;13.348;2024-03-23T04:57:17;6.83;86.42
20862;DHT22;10591;52.532;13.348;2024-03-23T04:59:48;6.78;86.61
20862;DHT22;10591;52.532;13.348;2024-03-23T05:02:18;6.81;86.73
20862;DHT22;10591;52.532;13.348;2024-03-23T05:04:49;6.84;86.76
20862;DHT22;10591;52.532;13.348;2024-03-23T05:07:20;6.80;86.86
20862;DHT22;10591;52.532;13.348;2024-03-23T05:09:51;6.84;86.98
20862;DHT22;10591;52.532;13.348;2024-03-23T05:12:22;6.74;87.31
20862;DHT22;10591;52.532;13.348;2024-03-23T05:14:52;6.92;86.82
20862;DHT22;10591;52.532;13.348;2024-03-23T05:17:23;6.84;87.03
20862;DHT22;10591;52.532;13.348;2024-03-23T05:19:54;6.89;86.77
20862;DHT22;10591;52.532;13.348;2024-03-23T05:22:26;6.90;87.07
20862;DHT22;10591;52.532;13.348;2024-03-23T05:24:57;6.97;87.15
20862;DHT22;10591;52.532;13.348;2024-03-23T05:27:28;6.96;87.08
20862;DHT22;10591;52.532;13.348;2024-03-23T05:29:59;7.00;86.66
20862;DHT22;10591;52.532;13.348;2024-03-23T05:32:30;6.90;87.14
20862;DHT22;10591;52.532;13.348;2024-03-23T05:35:00;6.84;86.96
20862;DHT22;10591;52.532;13.348;2024-03-23T05:37:31;6.87;86.61
20862;DHT22;10591;52.532;13.348;2024-03-23T05:40:04;6.86;86.81
20862;DHT22;10591;52.532;13.348;2024-03-23T05:42:35;6.87;86.95
20862;DHT22;10591;52.532;13.348;2024-03-23T05:45:06;6.96;86.88
20862;DHT22;10591;52.532;13.348;2024-03-23T05:47:37;6.82;86.80
20862;DHT22;10591;52.532;13.348;2024-03-23T05:50:09;6.88;86.95
20862;DHT22;10591;52.532;13.348;2024-03-23T05:52:42;6.78;87.33
20862;DHT22;10591;52.532;13.348;2024-03-23T05:55:13;6.90;86.55
20862;DHT22;10591;52.532;13.348;2024-03-23T05:57:44;6.80;86.79
20862;DHT22;10591;52.532;13.348;2024-03-23T06:00:15;6.82;86.71
20862;DHT22;10591;52.532;13.348;2024-03-23T06:02:45;6.90;86.43
20862;DHT22;10591;52.532;13.348;2024-03-23T06:05:16;6.89;86.39
20862;DHT22;10591;52.532;13.348;2024-03-23T06:07:47;6.90;86.40
20862;DHT22;10591;52.532;13.348;2024-03-23T06:10:19;6.86;86.49
20862;DHT22;10591;52.532;13.348;2024-03-23T06:12:51;6.91;86.54
20862;DHT22;10591;52.532;13.348;2024-03-23T06:15:24;7.00;86.46
20862;DHT22;10591;52.532;13.348;2024-03-23T06:17:56;7.06;86.11
20862;DHT22;10591;52.532;13.348;2024-03-23T06:20:27;7.10;85.50
20862;DHT22;10591;52.532;13.348;2024-03-23T06:22:58;6.95;86.51
20862;DHT22;10591;52.532;13.348;2024-03-23T06:25:29;7.00;86.35
20862;DHT22;10591;52.532;13.348;2024-03-23T06:27:59;6.96;86.29
20862;DHT22;10591;52.532;13.348;2024-03-23T06:30:32;6.90;85.75
20862;DHT22;10591;52.532;13.348;2024-03-23T06:33:04;6.92;86.24
20862;DHT22;10591;52.532;13.348;2024-03-23T06:35:38;6.78;86.29
20862;DHT22;10591;52.532;13.348;2024-03-23T06:38:10;6.86;86.52
20862;DHT22;10591;52.532;13.348;2024-03-23T06:40:41;6.89;86.41
20862;DHT22;10591;52.532;13.348;2024-03-23T06:43:13;6.90;86.59
20862;DHT22;10591;52.532;13.348;2024-03-23T06:45:57;6.86;85.77
20862;DHT22;10591;52.532;13.348;2024-03-23T06:48:19;6.91;85.82
20862;DHT22;10591;52.532;13.348;2024-03-23T06:50:54;6.82;86.32
20862;DHT22;10591;52.532;13.348;2024-03-23T06:53:22;6.78;86.66
20862;DHT22;10591;52.532;13.348;2024-03-23T06:55:53;6.95;86.56
20862;DHT22;10591;52.532;13.348;2024-03-23T06:58:25;6.87;86.49
20862;DHT22;10591;52.532;13.348;2024-03-23T07:00:57;6.90;86.62
20862;DHT22;10591;52.532;13.348;2024-03-23T07:03:28;6.72;86.64
20862;DHT22;10591;52.532;13.348;2024-03-23T07:05:59;6.56;86.76
20862;DHT22;10591;52.532;13.348;2024-03-23T07:08:30;6.55;86.82
20862;DHT22;10591;52.532;13.348;2024-03-23T07:11:00;6.52;87.22
20862;DHT22;10591;52.532;13.348;2024-03-23T07:13:32;6.56;87.58
20862;DHT22;10591;52.532;13.348;2024-03-23T07:16:03;6.70;87.08
20862;DHT22;10591;52.532;13.348;2024-03-23T07:18:35;6.69;86.88
20862;DHT22;10591;52.532;13.348;2024-03-23T07:21:06;6.70;87.17
20862;DHT22;10591;52.532;13.348;2024-03-23T07:23:37;6.52;86.71
20862;DHT22;10591;52.532;13.348;2024-03-23T07:26:08;6.62;86.52
20862;DHT22;10591;52.532;13.348;2024-03-23T07:28:40;6.66;86.48
20862;DHT22;10591;52.532;13.348;2024-03-23T07:31:16;6.60;86.68
20862;DHT22;10591;52.532;13.348;2024-03-23T07:33:48;6.72;86.42
20862;DHT22;10591;52.532;13.348;2024-03-23T07:36:19;6.81;86.05
20862;DHT22;10591;52.532;13.348;2024-03-23T07:38:50;7.02;85.48
20862;DHT22;10591;52.532;13.348;2024-03-23T07:41:23;6.94;86.30
20862;DHT22;10591;52.532;13.348;2024-03-23T07:43:54;7.34;86.07
20862;DHT22;10591;52.532;13.348;2024-03-23T07:46:25;7.42;85.86
20862;DHT22;10591;52.532;13.348;2024-03-23T07:48:58;7.04;84.75
20862;DHT22;10591;52.532;13.348;2024-03-23T07:51:31;7.20;85.35
20862;DHT22;10591;52.532;13.348;2024-03-23T07:54:05;7.10;85.19
20862;DHT22;10591;52.532;13.348;2024-03-23T07:56:37;7.01;84.73
20862;DHT22;10591;52.532;13.348;2024-03-23T07:59:07;6.84;84.87
20862;DHT22;10591;52.532;13.348;2024-03-23T08:01:38;6.72;85.73
20862;DHT22;10591;52.532;13.348;2024-03-23T08:04:09;6.60;86.04
20862;DHT22;10591;52.532;13.348;2024-03-23T08:06:40;6.57;86.69
20862;DHT22;10591;52.532;13.348;2024-03-23T08:09:13;6.51;87.31
20862;DHT22;10591;52.532;13.348;2024-03-23T08:11:46;6.34;87.55
20862;DHT22;10591;52.532;13.348;2024-03-23T08:14:17;6.14;87.21
20862;DHT22;10591;52.532;13.348;2024-03-23T08:16:48;5.97;87.59
20862;DHT22;10591;52.532;13.348;2024-03-23T08:19:22;5.90;88.08
20862;DHT22;10591;52.532;13.348;2024-03-23T08:21:55;5.88;88.41
20862;DHT22;10591;52.532;13.348;2024-03-23T08:24:26;5.81;88.28
20862;DHT22;10591;52.532;13.348;2024-03-23T08:26:56;5.87;88.77
20862;DHT22;10591;52.532;13.348;2024-03-23T08:29:27;5.76;88.94
20862;DHT22;10591;52.532;13.348;2024-03-23T08:31:59;5.80;89.12
20862;DHT22;10591;52.532;13.348;2024-03-23T08:34:30;5.66;88.50
20862;DHT22;10591;52.532;13.348;2024-03-23T08:37:01;5.58;88.70
20862;DHT22;10591;52.532;13.348;2024-03-23T08:39:31;5.48;89.07
20862;DHT22;10591;52.532;13.348;2024-03-23T08:42:02;5.42;88.73
20862;DHT22;10591;52.532;13.348;2024-03-23T08:44:33;5.33;88.95
20862;DHT22;10591;52.532;13.348;2024-03-23T08:47:03;5.29;89.14
20862;DHT22;10591;52.532;13.348;2024-03-23T08:49:34;5.28;88.93
20862;DHT22;10591;52.532;13.348;2024-03-23T08:52:06;5.31;89.12
20862;DHT22;10591;52.532;13.348;2024-03-23T08:54:37;5.18;88.81
20862;DHT22;10591;52.532;13.348;2024-03-23T08:57:08;5.12;88.62
20862;DHT22;10591;52.532;13.348;2024-03-23T08:59:39;5.14;89.48
20862;DHT22;10591;52.532;13.348;2024-03-23T09:02:09;5.13;88.54
20862;DHT22;10591;52.532;13.348;2024-03-23T09:04:40;5.08;88.83
20862;DHT22;10591;52.532;13.348;2024-03-23T09:07:11;5.03;88.78
20862;DHT22;10591;52.532;13.348;2024-03-23T09:09:41;4.94;88.57
20862;DHT22;10591;52.532;13.348;2024-03-23T09:12:12;4.74;87.79
20862;DHT22;10591;52.532;13.348;2024-03-23T09:14:42;4.68;88.29
20862;DHT22;10591;52.532;13.348;2024-03-23T09:17:15;4.66;88.47
20862;DHT22;10591;52.532;13.348;2024-03-23T09:19:47;4.61;88.90
20862;DHT22;10591;52.532;13.348;2024-03-23T09:22:18;4.68;88.90
20862;DHT22;10591;52.532;13.348;2024-03-23T09:24:50;4.64;88.57
20862;DHT22;10591;52.532;13.348;2024-03-23T09:27:20;4.58;87.97
20862;DHT22;10591;52.532;13.348;2024-03-23T09:29:53;4.68;88.32
20862;DHT22;10591;52.532;13.348;2024-03-23T09:32:23;4.68;87.60
20862;DHT22;10591;52.532;13.348;2024-03-23T09:34:53;4.67;88.31
20862;DHT22;10591;52.532;13.348;2024-03-23T09:37:24;4.64;88.81
20862;DHT22;10591;52.532;13.348;2024-03-23T09:39:56;4.70;89.57
20862;DHT22;10591;52.532;13.348;2024-03-23T09:42:27;4.63;89.20
20862;DHT22;10591;52.532;13.348;2024-03-23T09:44:59;4.72;89.09
20862;DHT22;10591;52.532;13.348;2024-03-23T09:47:31;4.66;89.21
20862;DHT22;10591;52.532;13.348;2024-03-23T09:50:03;4.74;89.46
20862;DHT22;10591;52.532;13.348;2024-03-23T09:52:35;4.64;88.56
20862;DHT22;10591;52.532;13.348;2024-03-23T09:55:06;4.55;88.35
20862;DHT22;10591;52.532;13.348;2024-03-23T09:57:40;4.49;88.21
20862;DHT22;10591;52.532;13.348;2024-03-23T10:00:12;4.46;88.93
20862;DHT22;10591;52.532;13.348;2024-03-23T10:02:43;4.44;87.61
20862;DHT22;10591;52.532;13.348;2024-03-23T10:05:21;4.36;87.48
20862;DHT22;10591;52.532;13.348;2024-03-23T10:07:55;4.34;87.36
20862;DHT22;10591;52.532;13.348;2024-03-23T10:10:26;4.26;87.67
20862;DHT22;10591;52.532;13.348;2024-03-23T10:12:56;4.30;87.89
20862;DHT22;10591;52.532;13.348;2024-03-23T10:15:27;4.34;88.56
20862;DHT22;10591;52.532;13.348;2024-03-23T10:17:58;4.30;88.59
20862;DHT22;10591;52.532;13.348;2024-03-23T10:20:30;4.37;88.47
20862;DHT22;10591;52.532;13.348;2024-03-23T10:23:03;4.38;88.96
20862;DHT22;10591;52.532;13.348;2024-03-23T10:25:33;4.57;89.27
20862;DHT22;10591;52.532;13.348;2024-03-23T10:28:04;4.78;89.32
20862;DHT22;10591;52.532;13.348;2024-03-23T10:30:37;4.70;89.58
20862;DHT22;10591;52.532;13.348;2024-03-23T10:33:13;4.70;88.98
20862;DHT22;10591;52.532;13.348;2024-03-23T10:35:45;4.86;89.34
20862;DHT22;10591;52.532;13.348;2024-03-23T10:38:19;4.87;89.54
20862;DHT22;10591;52.532;13.348;2024-03-23T10:40:50;5.12;89.37
20862;DHT22;10591;52.532;13.348;2024-03-23T10:43:22;5.10;88.82
20862;DHT22;10591;52.532;13.348;2024-03-23T10:45:52;5.10;89.19
20862;DHT22;10591;52.532;13.348;2024-03-23T10:48:23;5.24;89.05
20862;DHT22;10591;52.532;13.348;2024-03-23T10:50:55;5.30;89.07
20862;DHT22;10591;52.532;13.348;2024-03-23T10:53:27;5.39;88.63
20862;DHT22;10591;52.532;13.348;2024-03-23T10:56:00;5.54;88.17
20862;DHT22;10591;52.532;13.348;2024-03-23T10:58:40;5.47;87.00
20862;DHT22;10591;52.532;13.348;2024-03-23T11:01:13;5.54;86.75
20862;DHT22;10591;52.532;13.348;2024-03-23T11:03:46;5.60;87.38
20862;DHT22;10591;52.532;13.348;2024-03-23T11:06:37;5.86;86.60
20862;DHT22;10591;52.532;13.348;2024-03-23T11:11:54;5.92;84.77
20862;DHT22;10591;52.532;13.348;2024-03-23T11:14:25;5.88;85.00
20862;DHT22;10591;52.532;13.348;2024-03-23T11:17:11;5.82;84.33
20862;DHT22;10591;52.532;13.348;2024-03-23T11:19:41;5.94;84.40
20862;DHT22;10591;52.532;13.348;2024-03-23T11:22:14;6.04;83.09
20862;DHT22;10591;52.532;13.348;2024-03-23T11:24:50;6.31;83.03
20862;DHT22;10591;52.532;13.348;2024-03-23T11:27:21;6.26;82.60
20862;DHT22;10591;52.532;13.348;2024-03-23T11:29:53;6.39;83.12
20862;DHT22;10591;52.532;13.348;2024-03-23T11:32:26;6.48;82.40
20862;DHT22;10591;52.532;13.348;2024-03-23T11:34:56;6.72;81.07
20862;DHT22;10591;52.532;13.348;2024-03-23T11:37:27;7.01;80.64
20862;DHT22;10591;52.532;13.348;2024-03-23T11:39:59;7.36;80.09
20862;DHT22;10591;52.532;13.348;2024-03-23T11:42:31;7.27;79.75
20862;DHT22;10591;52.532;13.348;2024-03-23T11:45:07;7.24;77.42
20862;DHT22;10591;52.532;13.348;2024-03-23T11:47:38;7.52;78.21
20862;DHT22;10591;52.532;13.348;2024-03-23T11:50:09;7.59;76.95
20862;DHT22;10591;52.532;13.348;2024-03-23T11:52:40;7.77;76.69
20862;DHT22;10591;52.532;13.348;2024-03-23T11:55:11;7.96;76.78
20862;DHT22;10591;52.532;13.348;2024-03-23T11:57:42;8.10;77.38
20862;DHT22;10591;52.532;13.348;2024-03-23T12:00:23;8.22;77.46
20862;DHT22;10591;52.532;13.348;2024-03-23T12:02:54;7.89;77.14
20862;DHT22;10591;52.532;13.348;2024-03-23T12:05:27;7.78;77.95
20862;DHT22;10591;52.532;13.348;2024-03-23T12:11:13;7.28;78.84
20862;DHT22;10591;52.532;13.348;2024-03-23T12:13:45;7.82;78.10
20862;DHT22;10591;52.532;13.348;2024-03-23T12:16:19;7.70;77.25
20862;DHT22;10591;52.532;13.348;2024-03-23T12:18:50;7.84;77.38
20862;DHT22;10591;52.532;13.348;2024-03-23T12:21:22;7.66;79.38
20862;DHT22;10591;52.532;13.348;2024-03-23T12:23:53;7.50;78.91
20862;DHT22;10591;52.532;13.348;2024-03-23T12:26:24;7.38;78.88
20862;DHT22;10591;52.532;13.348;2024-03-23T12:28:55;7.44;78.80
20862;DHT22;10591;52.532;13.348;2024-03-23T12:31:26;7.38;78.93
20862;DHT22;10591;52.532;13.348;2024-03-23T12:33:56;7.49;79.42
20862;DHT22;10591;52.532;13.348;2024-03-23T12:36:27;7.78;79.90
20862;DHT22;10591;52.532;13.348;2024-03-23T12:38:58;7.96;78.30
20862;DHT22;10591;52.532;13.348;2024-03-23T12:41:29;7.85;76.58
20862;DHT22;10591;52.532;13.348;2024-03-23T12:43:59;7.96;76.68
20862;DHT22;10591;52.532;13.348;2024-03-23T12:46:31;7.79;76.92
20862;DHT22;10591;52.532;13.348;2024-03-23T12:49:01;8.14;74.67
20862;DHT22;10591;52.532;13.348;2024-03-23T12:51:32;8.03;74.30
20862;DHT22;10591;52.532;13.348;2024-03-23T12:54:04;7.74;74.54
20862;DHT22;10591;52.532;13.348;2024-03-23T12:56:35;7.86;74.16
20862;DHT22;10591;52.532;13.348;2024-03-23T12:59:05;7.84;75.32
20862;DHT22;10591;52.532;13.348;2024-03-23T13:01:36;8.08;74.94
20862;DHT22;10591;52.532;13.348;2024-03-23T13:04:07;8.40;75.18
20862;DHT22;10591;52.532;13.348;2024-03-23T13:06:38;8.54;74.78
20862;DHT22;10591;52.532;13.348;2024-03-23T13:09:09;8.60;74.17
20862;DHT22;10591;52.532;13.348;2024-03-23T13:11:42;8.53;74.14
20862;DHT22;10591;52.532;13.348;2024-03-23T13:14:13;8.27;75.16
20862;DHT22;10591;52.532;13.348;2024-03-23T13:16:47;9.68;80.12
20862;DHT22;10591;52.532;13.348;2024-03-23T13:19:18;10.46;74.34
20862;DHT22;10591;52.532;13.348;2024-03-23T13:21:49;10.66;71.93
20862;DHT22;10591;52.532;13.348;2024-03-23T13:24:22;10.46;68.76
20862;DHT22;10591;52.532;13.348;2024-03-23T13:26:55;9.91;69.31
20862;DHT22;10591;52.532;13.348;2024-03-23T13:29:26;9.84;69.65
20862;DHT22;10591;52.532;13.348;2024-03-23T13:31:56;9.98;69.54
20862;DHT22;10591;52.532;13.348;2024-03-23T13:34:27;9.78;70.49
20862;DHT22;10591;52.532;13.348;2024-03-23T13:36:59;9.60;70.45
20862;DHT22;10591;52.532;13.348;2024-03-23T13:39:31;9.35;70.83
20862;DHT22;10591;52.532;13.348;2024-03-23T13:42:01;9.13;71.48
20862;DHT22;10591;52.532;13.348;2024-03-23T13:44:33;9.28;71.46
20862;DHT22;10591;52.532;13.348;2024-03-23T13:47:04;9.60;71.62
20862;DHT22;10591;52.532;13.348;2024-03-23T13:49:38;9.65;70.44
20862;DHT22;10591;52.532;13.348;2024-03-23T13:52:10;9.98;69.20
20862;DHT22;10591;52.532;13.348;2024-03-23T13:54:40;10.38;68.72
20862;DHT22;10591;52.532;13.348;2024-03-23T13:57:16;10.61;67.82
20862;DHT22;10591;52.532;13.348;2024-03-23T13:59:47;10.40;68.62
20862;DHT22;10591;52.532;13.348;2024-03-23T14:02:20;10.07;68.53
20862;DHT22;10591;52.532;13.348;2024-03-23T14:04:51;9.80;68.86
20862;DHT22;10591;52.532;13.348;2024-03-23T14:07:22;9.80;69.42
20862;DHT22;10591;52.532;13.348;2024-03-23T14:09:52;9.90;69.31
20862;DHT22;10591;52.532;13.348;2024-03-23T14:12:25;9.82;68.11
20862;DHT22;10591;52.532;13.348;2024-03-23T14:14:57;9.78;68.74
20862;DHT22;10591;52.532;13.348;2024-03-23T14:17:27;9.59;70.10
20862;DHT22;10591;52.532;13.348;2024-03-23T14:19:58;9.31;70.16
20862;DHT22;10591;52.532;13.348;2024-03-23T14:22:32;9.18;70.45
20862;DHT22;10591;52.532;13.348;2024-03-23T14:25:04;9.18;69.95
20862;DHT22;10591;52.532;13.348;2024-03-23T14:27:34;8.76;72.89
20862;DHT22;10591;52.532;13.348;2024-03-23T14:30:09;8.54;74.24
20862;DHT22;10591;52.532;13.348;2024-03-23T14:32:40;8.58;74.97
20862;DHT22;10591;52.532;13.348;2024-03-23T14:35:11;8.57;74.53
20862;DHT22;10591;52.532;13.348;2024-03-23T14:37:41;8.42;74.19
20862;DHT22;10591;52.532;13.348;2024-03-23T14:40:12;8.43;73.47
20862;DHT22;10591;52.532;13.348;2024-03-23T14:42:42;8.38;72.69
20862;DHT22;10591;52.532;13.348;2024-03-23T14:45:13;8.27;73.41
20862;DHT22;10591;52.532;13.348;2024-03-23T14:47:45;8.02;74.95
20862;DHT22;10591;52.532;13.348;2024-03-23T14:50:16;7.76;76.36
20862;DHT22;10591;52.532;13.348;2024-03-23T14:52:47;7.30;79.21
20862;DHT22;10591;52.532;13.348;2024-03-23T14:55:18;6.90;80.74
20862;DHT22;10591;52.532;13.348;2024-03-23T14:57:49;6.58;80.27
20862;DHT22;10591;52.532;13.348;2024-03-23T15:00:21;6.53;80.27
20862;DHT22;10591;52.532;13.348;2024-03-23T15:02:52;6.51;81.43
20862;DHT22;10591;52.532;13.348;2024-03-23T15:05:24;6.64;82.34
20862;DHT22;10591;52.532;13.348;2024-03-23T15:07:54;6.95;81.87
20862;DHT22;10591;52.532;13.348;2024-03-23T15:10:25;7.39;80.75
20862;DHT22;10591;52.532;13.348;2024-03-23T15:12:55;7.46;81.40
20862;DHT22;10591;52.532;13.348;2024-03-23T15:15:26;7.66;80.98
20862;DHT22;10591;52.532;13.348;2024-03-23T15:17:58;7.80;80.81
20862;DHT22;10591;52.532;13.348;2024-03-23T15:20:30;7.83;80.94
20862;DHT22;10591;52.532;13.348;2024-03-23T15:23:02;7.76;80.63
20862;DHT22;10591;52.532;13.348;2024-03-23T15:25:33;7.62;79.95
20862;DHT22;10591;52.532;13.348;2024-03-23T15:28:04;7.62;80.20
20862;DHT22;10591;52.532;13.348;2024-03-23T15:30:36;7.66;79.44
20862;DHT22;10591;52.532;13.348;2024-03-23T15:33:07;7.33;80.44
20862;DHT22;10591;52.532;13.348;2024-03-23T15:35:37;7.36;79.58
20862;DHT22;10591;52.532;13.348;2024-03-23T15:38:08;7.42;79.84
20862;DHT22;10591;52.532;13.348;2024-03-23T15:40:39;7.38;79.55
20862;DHT22;10591;52.532;13.348;2024-03-23T15:43:10;7.36;79.07
20862;DHT22;10591;52.532;13.348;2024-03-23T15:45:40;7.41;79.99
20862;DHT22;10591;52.532;13.348;2024-03-23T15:48:12;7.50;79.44
20862;DHT22;10591;52.532;13.348;2024-03-23T15:50:51;7.44;79.28
20862;DHT22;10591;52.532;13.348;2024-03-23T15:53:23;7.44;79.55
20862;DHT22;10591;52.532;13.348;2024-03-23T15:58:33;7.62;76.98
20862;DHT22;10591;52.532;13.348;2024-03-23T16:01:08;7.46;77.96
20862;DHT22;10591;52.532;13.348;2024-03-23T16:03:41;7.46;76.27
20862;DHT22;10591;52.532;13.348;2024-03-23T16:06:12;7.48;77.55
20862;DHT22;10591;52.532;13.348;2024-03-23T16:08:45;7.46;76.48
20862;DHT22;10591;52.532;13.348;2024-03-23T16:11:15;7.52;76.74
20862;DHT22;10591;52.532;13.348;2024-03-23T16:13:47;7.58;76.32
20862;DHT22;10591;52.532;13.348;2024-03-23T16:16:20;7.52;76.28
20862;DHT22;10591;52.532;13.348;2024-03-23T16:18:53;7.42;76.98
20862;DHT22;10591;52.532;13.348;2024-03-23T16:21:24;7.34;77.07
20862;DHT22;10591;52.532;13.348;2024-03-23T16:23:54;7.27;77.69
20862;DHT22;10591;52.532;13.348;2024-03-23T16:26:27;7.33;76.27
20862;DHT22;10591;52.532;13.348;2024-03-23T16:28:59;7.16;76.60
20862;DHT22;10591;52.532;13.348;2024-03-23T16:31:32;7.15;76.49
20862;DHT22;10591;52.532;13.348;2024-03-23T16:34:05;7.15;76.03
20862;DHT22;10591;52.532;13.348;2024-03-23T16:36:36;7.14;76.98
20862;DHT22;10591;52.532;13.348;2024-03-23T16:39:07;7.24;75.40
20862;DHT22;10591;52.532;13.348;2024-03-23T16:41:38;7.14;75.04
20862;DHT22;10591;52.532;13.348;2024-03-23T16:44:09;7.18;74.83
20862;DHT22;10591;52.532;13.348;2024-03-23T16:46:40;7.18;75.13
20862;DHT22;10591;52.532;13.348;2024-03-23T16:49:12;7.23;74.68
20862;DHT22;10591;52.532;13.348;2024-03-23T16:51:43;7.04;75.41
20862;DHT22;10591;52.532;13.348;2024-03-23T16:54:14;7.05;75.58
20862;DHT22;10591;52.532;13.348;2024-03-23T16:56:44;7.04;75.40